N98AB KLAX-
Flight info
| Callsign | N98AB |
|---|---|
| Flight time | N/A |
| Altitude | VFR/055 |
| Route | N |
| Aircraft | C172/L-SFG/C |
Departure
| Time | 2026-04-25 03:33 |
|---|---|
| Airport | Los Angeles International Airport (KLAX) |
Arrival
| Time | N/A |
|---|---|
| Airport | - |
| Time | Latitude | Longitude | Altitude | Speed | Heading |
|---|---|---|---|---|---|
| 2026-04-25 03:29 | 33.93641 | -118.38285 | 96 ft | 0 kts | 24° |
| 2026-04-25 03:32 | 33.93642 | -118.38284 | 96 ft | 0 kts | 20° |
| 2026-04-25 03:32 | 33.93722 | -118.38335 | 96 ft | 27 kts | 282° |
| 2026-04-25 03:32 | 33.93693 | -118.38753 | 99 ft | 74 kts | 262° |
| 2026-04-25 03:32 | 33.93620 | -118.39378 | 385 ft | 69 kts | 262° |
| 2026-04-25 03:33 | 33.93528 | -118.39908 | 640 ft | 67 kts | 259° |
| 2026-04-25 03:33 | 33.93431 | -118.40462 | 885 ft | 66 kts | 260° |
| 2026-04-25 03:33 | 33.93348 | -118.40964 | 1137 ft | 62 kts | 258° |
| 2026-04-25 03:33 | 33.93264 | -118.41499 | 1291 ft | 72 kts | 260° |
| 2026-04-25 03:34 | 33.93153 | -118.42178 | 1352 ft | 92 kts | 259° |
| 2026-04-25 03:34 | 33.93073 | -118.42883 | 1772 ft | 61 kts | 264° |
| 2026-04-25 03:34 | 33.93066 | -118.43301 | 1994 ft | 59 kts | 293° |
| 2026-04-25 03:34 | 33.93428 | -118.43555 | 2190 ft | 62 kts | 324° |
| 2026-04-25 03:35 | 33.93709 | -118.43852 | 2381 ft | 56 kts | 302° |
| 2026-04-25 03:35 | 33.94139 | -118.44115 | 2460 ft | 84 kts | 345° |
| 2026-04-25 03:35 | 33.94786 | -118.43996 | 2529 ft | 105 kts | 12° |
| 2026-04-25 03:35 | 33.95526 | -118.43711 | 2590 ft | 117 kts | 14° |
| 2026-04-25 03:36 | 33.96358 | -118.43597 | 2645 ft | 122 kts | 353° |
| 2026-04-25 03:36 | 33.97229 | -118.43660 | 2699 ft | 126 kts | 352° |
| 2026-04-25 03:36 | 33.98089 | -118.43868 | 2749 ft | 126 kts | 336° |
| 2026-04-25 03:36 | 33.98923 | -118.44239 | 2801 ft | 128 kts | 335° |
| 2026-04-25 03:37 | 33.99757 | -118.44626 | 2856 ft | 129 kts | 335° |
| 2026-04-25 03:37 | 34.00589 | -118.45015 | 2931 ft | 128 kts | 335° |
| 2026-04-25 03:37 | 34.01424 | -118.45408 | 3007 ft | 128 kts | 335° |
| 2026-04-25 03:37 | 34.02251 | -118.45801 | 3083 ft | 128 kts | 335° |
| 2026-04-25 03:38 | 34.03082 | -118.46198 | 3170 ft | 128 kts | 335° |
| 2026-04-25 03:38 | 34.03895 | -118.46590 | 3294 ft | 125 kts | 335° |
| 2026-04-25 03:38 | 34.04695 | -118.46977 | 3418 ft | 123 kts | 335° |
| 2026-04-25 03:38 | 34.05490 | -118.47366 | 3545 ft | 122 kts | 335° |
| 2026-04-25 03:39 | 34.06283 | -118.47756 | 3672 ft | 122 kts | 335° |
| 2026-04-25 03:39 | 34.07067 | -118.48146 | 3799 ft | 122 kts | 335° |
| 2026-04-25 03:39 | 34.07853 | -118.48501 | 3921 ft | 123 kts | 348° |
| 2026-04-25 03:39 | 34.08677 | -118.48296 | 4045 ft | 122 kts | 34° |
| 2026-04-25 03:40 | 34.09324 | -118.47662 | 4174 ft | 120 kts | 44° |
| 2026-04-25 03:40 | 34.09960 | -118.47003 | 4283 ft | 122 kts | 45° |
| 2026-04-25 03:40 | 34.10644 | -118.46266 | 4163 ft | 138 kts | 46° |
| 2026-04-25 03:40 | 34.11381 | -118.45460 | 4041 ft | 146 kts | 46° |
| 2026-04-25 03:41 | 34.12147 | -118.44617 | 3915 ft | 149 kts | 46° |
| 2026-04-25 03:41 | 34.12929 | -118.43755 | 3787 ft | 149 kts | 46° |
| 2026-04-25 03:41 | 34.13647 | -118.42999 | 3645 ft | 131 kts | 36° |
| 2026-04-25 03:41 | 34.14500 | -118.42804 | 3510 ft | 120 kts | 351° |
| 2026-04-25 03:42 | 34.15248 | -118.43048 | 3484 ft | 103 kts | 341° |
| 2026-04-25 03:42 | 34.15880 | -118.43277 | 3478 ft | 88 kts | 348° |
| 2026-04-25 03:42 | 34.16444 | -118.43386 | 3484 ft | 80 kts | 352° |
| 2026-04-25 03:42 | 34.17032 | -118.43491 | 3485 ft | 92 kts | 351° |
| 2026-04-25 03:43 | 34.17706 | -118.43608 | 3451 ft | 107 kts | 354° |
| 2026-04-25 03:43 | 34.18501 | -118.43690 | 3313 ft | 120 kts | 359° |
| 2026-04-25 03:43 | 34.19270 | -118.43421 | 3106 ft | 120 kts | 44° |
| 2026-04-25 03:43 | 34.19774 | -118.42591 | 2491 ft | 134 kts | 72° |
| 2026-04-25 03:44 | 34.19912 | -118.41506 | 1993 ft | 127 kts | 88° |
| 2026-04-25 03:44 | 34.19935 | -118.40497 | 1642 ft | 118 kts | 95° |
| 2026-04-25 03:44 | 34.19924 | -118.39536 | 1409 ft | 103 kts | 94° |
| 2026-04-25 03:44 | 34.19914 | -118.38727 | 1221 ft | 94 kts | 97° |
| 2026-04-25 03:45 | 34.19873 | -118.37948 | 1001 ft | 90 kts | 101° |
| 2026-04-25 03:45 | 34.19815 | -118.37262 | 892 ft | 70 kts | 103° |
| 2026-04-25 03:45 | 34.19795 | -118.36719 | 756 ft | 60 kts | 102° |
| 2026-04-25 03:45 | 34.19790 | -118.36250 | 792 ft | 57 kts | 101° |
| 2026-04-25 03:46 | 34.19778 | -118.35693 | 823 ft | 75 kts | 105° |
| 2026-04-25 03:46 | 34.19835 | -118.35075 | 983 ft | 77 kts | 72° |
| 2026-04-25 03:46 | 34.19968 | -118.34431 | 1165 ft | 75 kts | 86° |
| 2026-04-25 03:46 | 34.20056 | -118.33778 | 1230 ft | 89 kts | 90° |
| 2026-04-25 03:47 | 34.20158 | -118.32961 | 1172 ft | 107 kts | 75° |
| 2026-04-25 03:47 | 34.20519 | -118.32148 | 1197 ft | 111 kts | 60° |
| 2026-04-25 03:47 | 34.20817 | -118.31377 | 1467 ft | 86 kts | 81° |